Flight Track Log - Related Links

Times and Time Zones

All times are in EDT time to prevent confusion due to time zone crossing. See the TCF3452 flight status page for this flight to view local times or setup timezone preferences in your user account.

Time Position Orientation Groundspeed Altitude Reporting Facility
EDT Latitude Longitude Course Direction KTS MPH feet Rate Location/Type
Wed 07:54:18 PM 39.8167 -104.6167 27° Northeast 174 200 6,600  Level Denver TRACON
Wed 07:55:12 PM 39.8333 -104.5667 67° East 215 247 7,800 1,737 Climbing Denver TRACON
Wed 07:56:00 PM 40.1056 -104.4222 323° Northwest  Level FlightAware Approximate
Wed 07:56:12 PM 39.8833 -104.4833 52° Northeast 267 307 9,900  Level Denver TRACON
Wed 07:57:00 PM 40.1927 -104.5000 North  Level FlightAware Approximate
Wed 07:57:18 PM 39.9667 -104.4667 North 324 373 10,700  Level Denver TRACON
Wed 07:58:00 PM 40.3000 -104.5000 37° Northeast  Level FlightAware Approximate
Wed 07:58:12 PM 40.0500 -104.4667 360° North 319 367 13,900  Level Denver TRACON
Wed 07:59:00 PM 40.3763 -104.4102 27° Northeast  Level FlightAware Approximate
Wed 07:59:16 PM 40.1408 -104.4758 356° North 326 375 16,600  Level Denver Center
Wed 08:00:18 PM 40.2367 -104.4742 North 346 398 18,700 2,177 Climbing Denver Center
Wed 08:01:20 PM 40.3308 -104.4103 27° Northeast 353 406 21,100 2,160 Climbing Denver Center
Wed 08:02:23 PM 40.4181 -104.3456 29° Northeast 362 417 23,200 2,304 Climbing Denver Center
Wed 08:03:25 PM 40.5136 -104.2783 28° Northeast 362 417 25,900 2,129 Climbing Denver Center
Wed 08:04:27 PM 40.5983 -104.2139 30° Northeast 353 406 27,600 1,403 Climbing Denver Center
Wed 08:05:29 PM 40.6747 -104.1097 46° Northeast 371 427 28,800 968 Climbing Denver Center
Wed 08:06:31 PM 40.7467 -104.0192 44° Northeast 377 434 29,600 919 Climbing Denver Center
Wed 08:07:33 PM 40.8367 -103.9031 44° Northeast 402 463 30,700 968 Climbing Denver Center
Wed 08:08:35 PM 40.9161 -103.8011 44° Northeast 414 476 31,600 968 Climbing Denver Center
Wed 08:09:37 PM 41.0117 -103.6781 44° Northeast 425 489 32,700 878 Climbing Denver Center
Wed 08:10:38 PM 41.0800 -103.5886 45° Northeast 430 495 33,400 1,113 Climbing Denver Center
Wed 08:11:41 PM 41.1867 -103.4486 45° Northeast 425 489 35,000 768 Climbing Denver Center
Wed 08:12:43 PM 41.2647 -103.3472 44° Northeast 416 479 35,000  Level Denver Center
Wed 08:13:45 PM 41.3536 -103.2286 45° Northeast 408 470 35,000  Level Denver Center
Wed 08:14:59 PM 41.4114 -103.1047 58° Northeast 420 483 35,000  Level Denver Center
Wed 08:16:01 PM 41.4447 -102.9194 76° East 408 470 35,000  Level Denver Center
Wed 08:17:03 PM 41.4697 -102.7800 77° East 407 468 35,000  Level Denver Center
Wed 08:18:06 PM 41.4978 -102.6156 77° East 409 471 35,000  Level Denver Center
Wed 08:19:08 PM 41.5228 -102.4769 76° East 413 475 35,000  Level Denver Center
Wed 08:20:09 PM 41.5467 -102.3347 77° East 412 474 35,000 -441 Level Denver Center
Wed 08:21:24 PM 41.5756 -102.1686 77° East 411 473 34,000 -876 Descending Denver Center
Wed 08:22:26 PM 41.6064 -101.9794 78° East 409 471 33,000 -484 Descending Denver Center
Wed 08:23:28 PM 41.6344 -101.8064 78° East 423 487 33,000  Level Denver Center
Wed 08:24:30 PM 41.6603 -101.6575 77° East 428 493 33,000  Level Denver Center
Wed 08:25:32 PM 41.6842 -101.5092 78° East 426 490 33,000  Level Denver Center
Wed 08:26:34 PM 41.7081 -101.3589 78° East 429 494 33,000  Level Denver Center
Wed 08:27:36 PM 41.7353 -101.1858 78° East 427 491 33,000  Level Denver Center
Wed 08:28:38 PM 41.7636 -101.0125 78° East 426 490 33,000  Level Denver Center
Wed 08:29:40 PM 41.7872 -100.8636 78° East 426 490 33,000  Level Denver Center
Wed 08:30:54 PM 41.8133 -100.6908 78° East 424 488 33,000  Level Denver Center
Wed 08:31:57 PM 41.8406 -100.5158 78° East 428 493 33,000  Level Denver Center
Wed 08:33:11 PM 41.8667 -100.3406 79° East 427 491 33,000  Level Denver Center
Wed 08:34:13 PM 41.8969 -100.1383 79° East 432 497 33,000  Level Denver Center
Wed 08:34:49 PM 41.9119 -100.0458 78° East 435 501 33,000  Level Minneapolis Center
Wed 08:35:27 PM 41.9194 -99.9869 80° East 432 497 33,000  Level Denver Center
Wed 08:36:41 PM 41.9492 -99.7842 79° East 434 499 33,000  Level Denver Center
Wed 08:37:44 PM 41.9750 -99.6019 79° East 433 498 33,000  Level Denver Center
Wed 08:38:46 PM 41.9983 -99.4403 79° East 437 503 33,000  Level Denver Center
Wed 08:39:48 PM 42.0214 -99.2781 79° East 440 506 33,000  Level Denver Center
Wed 08:40:50 PM 42.0489 -99.0822 79° East 442 509 33,000  Level Denver Center
Wed 08:41:52 PM 42.0603 -98.9144 85° East 449 517 33,000  Level Denver Center
Wed 08:42:53 PM 42.0611 -98.7814 89° East 448 516 33,000  Level Denver Center
Wed 08:43:55 PM 42.0619 -98.5789 90° East 449 517 33,000  Level Denver Center
Wed 08:44:57 PM 42.0617 -98.4097 90° East 449 517 33,000  Level Denver Center
Wed 08:46:11 PM 42.0342 -98.1994 100° East 470 541 33,000  Level Minneapolis Center
Wed 08:47:13 PM 42.0150 -98.0331 99° East 470 541 33,000  Level Minneapolis Center
Wed 08:48:15 PM 41.9953 -97.8233 97° East 471 542 33,000  Level Minneapolis Center
Wed 08:49:17 PM 41.9789 -97.6486 97° East 471 542 33,000  Level Minneapolis Center
Wed 08:50:19 PM 41.9656 -97.4772 96° East 466 536 33,000  Level Minneapolis Center
Wed 08:51:21 PM 41.9592 -97.3044 93° East 464 534 33,000  Level Minneapolis Center
Wed 08:52:23 PM 41.9633 -97.1269 88° East 470 541 33,000  Level Minneapolis Center
Wed 08:53:25 PM 41.9644 -96.9500 89° East 473 544 33,000  Level Minneapolis Center
Wed 08:54:27 PM 41.9650 -96.7742 90° East 472 543 33,000  Level Minneapolis Center
Wed 08:55:29 PM 41.9664 -96.5617 89° East 471 542 33,000  Level Minneapolis Center
Wed 08:56:31 PM 41.9672 -96.3858 90° East 471 542 33,000  Level Minneapolis Center
Wed 08:57:33 PM 41.9672 -96.2089 90° East 470 541 33,000  Level Minneapolis Center
Wed 08:58:35 PM 41.9678 -96.0317 90° East 471 542 33,000  Level Minneapolis Center
Wed 08:59:37 PM 41.9675 -95.8578 90° East 465 535 33,000  Level Minneapolis Center
Wed 09:00:51 PM 41.9667 -95.6819 90° East 468 539 33,000  Level Minneapolis Center
Wed 09:01:54 PM 41.9658 -95.4717 90° East 467 537 33,000  Level Minneapolis Center
Wed 09:02:56 PM 41.9639 -95.2639 91° East 463 533 33,000  Level Minneapolis Center
Wed 09:03:58 PM 41.9633 -95.0942 90° East 456 525 33,000  Level Minneapolis Center
Wed 09:05:00 PM 41.9611 -94.9247 91° East 452 520 33,000 -581 Level Minneapolis Center
Wed 09:06:02 PM 41.9586 -94.7536 91° East 457 526 31,800 -1,403 Descending Minneapolis Center
Wed 09:07:04 PM 41.9561 -94.5803 91° East 461 531 30,100 -1,544 Descending Minneapolis Center
Wed 09:08:18 PM 41.9550 -94.4094 90° East 459 528 28,300 -1,632 Descending Minneapolis Center
Wed 09:09:20 PM 41.9517 -94.2400 91° East 453 521 26,400 -2,304 Descending Minneapolis Center
Wed 09:10:23 PM 41.9469 -93.9994 91° East 461 531 23,500 -2,208 Descending Minneapolis Center
Wed 09:11:25 PM 41.9444 -93.8236 91° East 457 526 21,800 -1,403 Descending Minneapolis Center
Wed 09:12:27 PM 41.9406 -93.6539 92° East 446 513 20,600 -871 Descending Minneapolis Center
Wed 09:13:29 PM 41.9386 -93.4928 91° East 436 502 20,000 -581 Descending Minneapolis Center
Wed 09:14:31 PM 41.9347 -93.3375 92° East 425 489 19,400 -441 Descending Minneapolis Center
Wed 09:15:45 PM 41.9306 -93.1836 92° East 419 482 19,000 -176 Descending Minneapolis Center
Wed 09:16:47 PM 41.9256 -92.9992 92° East 416 479 19,000  Level Minneapolis Center
Wed 09:17:49 PM 41.9206 -92.8142 92° East 416 479 19,000  Level Minneapolis Center
Wed 09:19:03 PM 41.9167 -92.6686 92° East 420 483 19,000  Level Minneapolis Center
Wed 09:19:52 PM 41.9128 -92.5153 92° East 413 475 19,000  Level Chicago Center
Wed 09:20:53 PM 41.9075 -92.3625 93° East 414 476 19,000 -390 Level Chicago Center
Wed 09:21:55 PM 41.9003 -92.1772 93° East 420 483 18,200 -1,403 Descending Chicago Center
Wed 09:22:57 PM 41.8972 -92.0425 92° East 383 441 16,100 -1,984 Descending Chicago Center
Wed 09:23:59 PM 41.8919 -91.9103 93° East 366 421 14,100 -1,790 Descending Chicago Center
Wed 09:25:01 PM 41.8872 -91.7814 93° East 355 409 12,400 -1,597 Descending Chicago Center
Wed 09:26:03 PM 41.8858 -91.6647 91° East 324 373 10,800 -1,887 Descending Chicago Center
Wed 09:27:05 PM 41.9175 -91.5456 70° East 315 362 8,500 -1,790 Descending Chicago Center
Wed 09:28:07 PM 41.9550 -91.4647 58° Northeast 274 315 7,100 -1,366 Descending Chicago Center
Wed 09:29:08 PM 41.9039 -91.4500 168° South 226 260 5,700 -1,561 Descending Chicago Center
Wed 09:30:10 PM 41.8869 -91.5258 253° West 217 250 3,900 -1,742 Descending Chicago Center

Login

Don't have an account? Register now (free) for customized features, flight alerts, and more!